Time;durP1;ratioP1;P1;durP2;ratioP2;P2;SDS_P1;SDS_P2;PMS_P1;PMS_P2;Temp;Humidity;BMP_temperature;BMP_pressure;BME280_temperature;BME280_humidity;BME280_pressure;Samples;Min_cycle;Max_cycle;Signal;HPM_P1;HPM_P2
2023/11/16 00:00:32;;;;;;;9.93;7.33;;;9.90;99.90;;;;;;5033494;28;20459;-73
2023/11/16 00:03:05;;;;;;;7.97;6.33;;;9.90;99.90;;;;;;5033226;28;20431;-73
2023/11/16 00:05:35;;;;;;;12.83;6.10;;;9.90;99.90;;;;;;5033331;28;20422;-73
2023/11/16 00:08:06;;;;;;;10.20;6.20;;;10.00;99.90;;;;;;5032059;28;20454;-73
2023/11/16 00:10:35;;;;;;;8.67;5.63;;;10.00;99.90;;;;;;5032400;28;20498;-73
2023/11/16 00:13:04;;;;;;;8.90;6.13;;;10.00;99.90;;;;;;5037228;28;20537;-72
2023/11/16 00:15:35;;;;;;;10.83;6.37;;;9.90;99.90;;;;;;5036349;28;20481;-73
2023/11/16 00:18:05;;;;;;;6.60;5.63;;;9.90;99.90;;;;;;5037987;28;20427;-73
2023/11/16 00:20:35;;;;;;;6.17;5.20;;;10.00;99.90;;;;;;5036200;28;20474;-73
2023/11/16 00:23:04;;;;;;;8.73;5.33;;;10.00;99.90;;;;;;5037181;28;20481;-73
2023/11/16 00:25:33;;;;;;;8.73;4.93;;;10.00;99.90;;;;;;5035911;28;20522;-73
2023/11/16 00:28:01;;;;;;;7.83;5.20;;;10.00;99.90;;;;;;5035601;28;20486;-73
2023/11/16 00:30:29;;;;;;;5.23;4.33;;;10.00;99.90;;;;;;5035755;28;20490;-73
2023/11/16 00:32:59;;;;;;;5.63;3.97;;;10.00;99.90;;;;;;5035687;28;20540;-73
2023/11/16 00:35:29;;;;;;;8.27;4.03;;;10.00;99.90;;;;;;5036736;28;20801;-73
2023/11/16 00:37:57;;;;;;;6.30;3.60;;;10.00;99.90;;;;;;5035515;28;20538;-73
2023/11/16 00:40:26;;;;;;;8.00;3.53;;;10.00;99.90;;;;;;5035356;28;20462;-73
2023/11/16 00:42:55;;;;;;;7.13;3.17;;;10.00;99.90;;;;;;5035381;28;20451;-73
2023/11/16 00:45:23;;;;;;;6.60;3.20;;;10.00;99.90;;;;;;5035684;28;20490;-73
2023/11/16 00:47:52;;;;;;;9.00;3.40;;;10.00;99.90;;;;;;5035620;28;20584;-73
2023/11/16 00:50:21;;;;;;;10.80;3.60;;;10.00;99.90;;;;;;5035527;28;20980;-72
2023/11/16 00:52:51;;;;;;;5.20;3.10;;;10.00;99.90;;;;;;5036715;28;20810;-72
2023/11/16 00:55:20;;;;;;;6.60;2.60;;;10.00;99.90;;;;;;5036891;28;20797;-73
2023/11/16 00:57:50;;;;;;;6.50;3.57;;;9.90;99.90;;;;;;5035288;28;20994;-73
2023/11/16 01:00:19;;;;;;;5.57;2.53;;;9.90;99.90;;;;;;5034899;28;20471;-74
2023/11/16 01:02:49;;;;;;;7.20;2.20;;;10.00;99.90;;;;;;5035301;28;20450;-73
2023/11/16 01:05:18;;;;;;;6.10;1.53;;;9.90;99.90;;;;;;5036311;28;20442;-72
2023/11/16 01:07:47;;;;;;;4.50;1.80;;;9.90;99.90;;;;;;5036039;28;20439;-73
2023/11/16 01:10:23;;;;;;;5.07;1.80;;;9.90;99.90;;;;;;5034960;28;20478;-72
2023/11/16 01:12:53;;;;;;;5.67;2.30;;;9.90;99.90;;;;;;5035176;28;20468;-72
2023/11/16 01:15:22;;;;;;;3.30;1.60;;;9.90;99.90;;;;;;5036732;28;20438;-72
2023/11/16 01:17:52;;;;;;;7.33;1.70;;;9.90;99.90;;;;;;5034672;28;20450;-73
2023/11/16 01:20:23;;;;;;;6.10;1.50;;;9.90;99.90;;;;;;5035867;28;20462;-73
2023/11/16 01:23:01;;;;;;;5.60;2.20;;;9.90;99.90;;;;;;5034075;28;20821;-73
2023/11/16 01:25:32;;;;;;;3.77;1.30;;;9.80;99.90;;;;;;5034934;28;20443;-72
2023/11/16 01:28:00;;;;;;;3.83;1.40;;;9.80;99.90;;;;;;5034543;28;20450;-73
2023/11/16 01:30:29;;;;;;;6.70;2.20;;;9.80;99.90;;;;;;5034604;28;20474;-73
2023/11/16 01:32:58;;;;;;;4.17;1.27;;;9.80;99.90;;;;;;5036177;28;20793;-73
2023/11/16 01:35:28;;;;;;;3.80;1.40;;;9.80;99.90;;;;;;5034468;28;20551;-72
2023/11/16 01:37:57;;;;;;;6.00;1.57;;;9.80;99.90;;;;;;5035802;28;20496;-73
2023/11/16 01:40:27;;;;;;;5.57;2.10;;;9.80;99.90;;;;;;5034521;28;20879;-73
2023/11/16 01:43:00;;;;;;;5.50;1.63;;;9.70;99.90;;;;;;5035596;28;20530;-72
2023/11/16 01:45:33;;;;;;;3.70;1.20;;;9.70;99.90;;;;;;5034238;28;20459;-73
2023/11/16 01:48:06;;;;;;;9.30;1.80;;;9.70;99.90;;;;;;5034176;28;20432;-73
2023/11/16 01:50:36;;;;;;;5.03;1.60;;;9.70;99.90;;;;;;5033996;28;20841;-73
2023/11/16 01:53:10;;;;;;;7.17;1.83;;;9.70;99.90;;;;;;5035734;28;20478;-73
2023/11/16 01:55:41;;;;;;;3.57;1.20;;;9.70;99.90;;;;;;5034905;28;20443;-73
2023/11/16 01:58:12;;;;;;;3.47;1.40;;;9.70;99.90;;;;;;5034075;28;20439;-73
2023/11/16 02:00:42;;;;;;;5.20;1.30;;;9.80;99.90;;;;;;5034046;28;20463;-73
2023/11/16 02:03:12;;;;;;;3.93;1.20;;;9.70;99.90;;;;;;5033988;28;20449;-73
2023/11/16 02:05:41;;;;;;;3.70;1.50;;;9.70;99.90;;;;;;5035404;28;20439;-73
2023/11/16 02:08:09;;;;;;;5.10;1.67;;;9.70;99.90;;;;;;5033968;28;20443;-73
2023/11/16 02:10:39;;;;;;;4.27;1.50;;;9.70;99.90;;;;;;5034118;28;20478;-73
2023/11/16 02:13:20;;;;;;;3.30;1.30;;;9.70;99.90;;;;;;5034307;28;20818;-72
2023/11/16 02:15:49;;;;;;;3.23;1.47;;;9.70;99.90;;;;;;5034990;28;20420;-73
2023/11/16 02:18:17;;;;;;;2.50;1.43;;;9.70;99.90;;;;;;5033271;28;20443;-73
2023/11/16 02:20:46;;;;;;;3.07;1.60;;;9.70;99.90;;;;;;5034502;28;21021;-74
2023/11/16 02:23:17;;;;;;;3.30;1.50;;;9.60;99.90;;;;;;5033256;28;20439;-74
2023/11/16 02:25:47;;;;;;;5.90;1.63;;;9.60;99.90;;;;;;5033223;28;20446;-73
2023/11/16 02:28:16;;;;;;;4.70;1.93;;;9.50;99.90;;;;;;5034411;28;20453;-73
2023/11/16 02:30:46;;;;;;;4.67;1.50;;;9.50;99.90;;;;;;5032954;28;20475;-73
2023/11/16 02:33:14;;;;;;;5.17;1.60;;;9.50;99.90;;;;;;5033061;28;20447;-73
2023/11/16 02:35:43;;;;;;;4.57;1.50;;;9.50;99.90;;;;;;5032130;28;20489;-73
2023/11/16 02:38:12;;;;;;;4.17;1.90;;;9.50;99.90;;;;;;5034697;28;20443;-73
2023/11/16 02:40:42;;;;;;;2.50;1.20;;;9.50;99.90;;;;;;5032794;28;20819;-73
2023/11/16 02:43:12;;;;;;;5.10;1.90;;;9.50;99.90;;;;;;5032866;28;20455;-73
2023/11/16 02:45:41;;;;;;;5.37;1.70;;;9.50;99.90;;;;;;5032764;28;20498;-72
2023/11/16 02:48:09;;;;;;;4.70;1.70;;;9.40;99.90;;;;;;5032744;28;20446;-73
2023/11/16 02:50:38;;;;;;;5.80;1.70;;;9.40;99.90;;;;;;5034072;28;20479;-73
2023/11/16 02:53:08;;;;;;;3.37;1.00;;;9.40;99.90;;;;;;5033932;28;20431;-72
2023/11/16 02:55:36;;;;;;;4.83;1.47;;;9.40;99.90;;;;;;5032752;28;20442;-73
2023/11/16 02:58:07;;;;;;;3.07;1.60;;;9.40;99.90;;;;;;5032649;28;20490;-73
2023/11/16 03:00:35;;;;;;;4.67;1.70;;;9.30;99.90;;;;;;5032498;28;20508;-73
2023/11/16 03:03:05;;;;;;;5.27;1.97;;;9.30;99.90;;;;;;5032514;28;20477;-74
2023/11/16 03:05:34;;;;;;;4.93;1.30;;;9.30;99.90;;;;;;5032786;28;20537;-73
2023/11/16 03:08:02;;;;;;;5.00;1.80;;;9.30;99.90;;;;;;5033669;28;20430;-73
2023/11/16 03:10:32;;;;;;;3.90;1.27;;;9.30;99.90;;;;;;5032322;28;20513;-73
2023/11/16 03:13:03;;;;;;;3.40;1.27;;;9.20;99.90;;;;;;5032393;28;21018;-73
2023/11/16 03:15:33;;;;;;;4.37;1.10;;;9.20;99.90;;;;;;5033879;28;20435;-73
2023/11/16 03:18:02;;;;;;;3.97;1.27;;;9.20;99.90;;;;;;5032366;28;20438;-73
2023/11/16 03:20:30;;;;;;;6.13;1.70;;;9.20;99.90;;;;;;5032201;28;20512;-73
2023/11/16 03:22:58;;;;;;;6.00;1.27;;;9.20;99.90;;;;;;5032236;28;20457;-73
2023/11/16 03:25:29;;;;;;;2.50;1.13;;;9.20;99.90;;;;;;5032252;28;20695;-73
2023/11/16 03:27:58;;;;;;;6.97;1.80;;;9.20;99.90;;;;;;5032150;28;20936;-73
2023/11/16 03:30:27;;;;;;;3.50;1.33;;;9.20;99.90;;;;;;5032031;28;20505;-73
2023/11/16 03:32:57;;;;;;;3.20;1.10;;;9.20;99.90;;;;;;5032109;28;20474;-73
2023/11/16 03:35:26;;;;;;;5.53;1.33;;;9.20;99.90;;;;;;5033182;28;20435;-73
2023/11/16 03:37:54;;;;;;;4.37;1.70;;;9.10;99.90;;;;;;5033535;28;20496;-74
2023/11/16 03:40:22;;;;;;;4.23;1.50;;;9.20;99.90;;;;;;5031962;28;20497;-73
2023/11/16 03:42:50;;;;;;;2.97;1.43;;;9.10;99.90;;;;;;5032070;28;20461;-73
2023/11/16 03:45:19;;;;;;;3.67;1.37;;;9.10;99.90;;;;;;5033607;28;20622;-73
2023/11/16 03:47:48;;;;;;;3.27;1.90;;;9.10;99.90;;;;;;5039829;28;20441;-73
2023/11/16 03:50:18;;;;;;;3.87;1.23;;;9.10;99.90;;;;;;5038424;28;20474;-73
2023/11/16 03:52:46;;;;;;;3.10;1.00;;;9.10;99.90;;;;;;5039883;28;20445;-73
2023/11/16 03:55:15;;;;;;;6.17;1.97;;;9.10;99.90;;;;;;5038470;28;20500;-73
2023/11/16 03:57:43;;;;;;;3.23;1.13;;;9.00;99.90;;;;;;5038507;28;20497;-73
2023/11/16 04:00:13;;;;;;;4.20;1.40;;;9.00;99.90;;;;;;5039598;28;20472;-72
2023/11/16 04:02:41;;;;;;;3.43;1.00;;;9.00;99.90;;;;;;5038415;28;20540;-73
2023/11/16 04:05:09;;;;;;;2.67;1.10;;;8.90;99.90;;;;;;5038408;28;20451;-73
2023/11/16 04:07:39;;;;;;;3.63;1.00;;;8.90;99.90;;;;;;5038353;28;20952;-73
2023/11/16 04:10:12;;;;;;;2.87;0.90;;;8.90;99.90;;;;;;5039579;28;20422;-73
2023/11/16 04:12:41;;;;;;;4.27;1.20;;;8.80;99.90;;;;;;5039594;28;20932;-73
2023/11/16 04:15:13;;;;;;;2.37;1.03;;;8.80;99.90;;;;;;5040214;28;20430;-73
2023/11/16 04:17:43;;;;;;;3.20;1.10;;;8.80;99.90;;;;;;5039858;28;20427;-73
2023/11/16 04:20:12;;;;;;;3.80;1.53;;;8.80;99.90;;;;;;5038180;28;20997;-73
2023/11/16 04:22:43;;;;;;;5.30;1.13;;;8.80;99.90;;;;;;5039415;28;20454;-73
2023/11/16 04:25:20;;;;;;;7.30;1.20;;;8.70;99.90;;;;;;5038781;28;20533;-73
2023/11/16 04:27:48;;;;;;;2.70;1.10;;;8.70;99.90;;;;;;5038240;28;20443;-73
2023/11/16 04:30:19;;;;;;;5.30;1.43;;;8.70;99.90;;;;;;5038065;28;20532;-73
2023/11/16 04:32:49;;;;;;;4.80;1.23;;;8.70;99.90;;;;;;5038145;28;20469;-73
2023/11/16 04:35:18;;;;;;;6.10;1.33;;;8.70;99.90;;;;;;5039412;28;20438;-73
2023/11/16 04:37:49;;;;;;;4.57;1.23;;;8.60;99.90;;;;;;5038137;28;20534;-73
2023/11/16 04:40:19;;;;;;;3.63;1.63;;;8.60;99.90;;;;;;5039481;28;20556;-73
2023/11/16 04:42:48;;;;;;;3.40;1.03;;;8.60;99.90;;;;;;5039226;28;20434;-73
2023/11/16 04:45:18;;;;;;;2.33;1.10;;;8.60;99.90;;;;;;5039146;28;20449;-73
2023/11/16 04:47:47;;;;;;;2.07;1.10;;;8.60;99.90;;;;;;5038053;28;20437;-73
2023/11/16 04:50:17;;;;;;;3.83;0.83;;;8.60;99.90;;;;;;5037941;28;20561;-73
2023/11/16 04:52:46;;;;;;;4.77;1.40;;;8.50;99.90;;;;;;5039141;28;20497;-73
2023/11/16 04:55:16;;;;;;;4.70;1.20;;;8.50;99.90;;;;;;5037925;28;20462;-73
2023/11/16 04:57:46;;;;;;;3.23;1.30;;;8.50;99.90;;;;;;5036816;28;20428;-73
2023/11/16 05:00:17;;;;;;;6.73;1.37;;;8.50;99.90;;;;;;5034771;28;20480;-73
2023/11/16 05:02:46;;;;;;;3.73;1.10;;;8.40;99.90;;;;;;5036302;28;20457;-72
2023/11/16 05:05:16;;;;;;;4.23;1.50;;;8.40;99.90;;;;;;5034729;28;20500;-73
2023/11/16 05:07:45;;;;;;;3.20;0.90;;;8.30;99.90;;;;;;5034674;28;20445;-73
2023/11/16 05:10:16;;;;;;;2.40;0.90;;;8.30;99.90;;;;;;5034564;28;20491;-73
2023/11/16 05:12:48;;;;;;;4.53;1.10;;;8.30;99.90;;;;;;5034555;28;20520;-73
2023/11/16 05:15:17;;;;;;;3.97;1.10;;;8.20;99.90;;;;;;5034580;28;20537;-73
2023/11/16 05:17:46;;;;;;;2.27;0.90;;;8.20;99.90;;;;;;5035994;28;20469;-73
2023/11/16 05:20:16;;;;;;;3.87;1.00;;;8.20;99.90;;;;;;5034439;28;20463;-73
2023/11/16 05:22:45;;;;;;;2.33;0.77;;;8.10;99.90;;;;;;5034357;28;20437;-73
2023/11/16 05:25:13;;;;;;;5.70;1.60;;;8.10;99.90;;;;;;5034308;28;20457;-73
2023/11/16 05:27:42;;;;;;;4.37;1.63;;;8.10;99.90;;;;;;5035580;28;20456;-72
2023/11/16 05:30:13;;;;;;;2.53;0.83;;;8.00;99.90;;;;;;5034320;28;20452;-73
2023/11/16 05:32:41;;;;;;;3.00;1.13;;;8.00;99.90;;;;;;5034223;28;21021;-73
2023/11/16 05:35:11;;;;;;;4.23;1.23;;;8.00;99.90;;;;;;5035505;28;20461;-73
2023/11/16 05:37:39;;;;;;;4.10;0.80;;;8.00;99.90;;;;;;5034160;28;20545;-73
2023/11/16 05:40:09;;;;;;;4.33;0.90;;;7.90;99.90;;;;;;5033987;28;20459;-73
2023/11/16 05:42:37;;;;;;;3.50;0.87;;;7.90;99.90;;;;;;5034126;28;20445;-73
2023/11/16 05:45:07;;;;;;;3.03;0.93;;;7.90;99.90;;;;;;5034103;28;20472;-73
2023/11/16 05:47:37;;;;;;;3.30;1.23;;;7.80;99.90;;;;;;5035509;28;20452;-73
2023/11/16 05:50:07;;;;;;;4.33;0.90;;;7.80;99.90;;;;;;5033884;28;20443;-73
2023/11/16 05:52:35;;;;;;;3.50;0.80;;;7.80;99.90;;;;;;5034730;28;20573;-73
2023/11/16 05:55:04;;;;;;;2.40;0.90;;;7.70;99.90;;;;;;5035311;28;20439;-73
2023/11/16 05:57:32;;;;;;;2.00;0.70;;;7.70;99.90;;;;;;5033972;28;20458;-73
2023/11/16 06:00:00;;;;;;;2.00;0.80;;;7.70;99.90;;;;;;5033821;28;20461;-73
2023/11/16 06:02:40;;;;;;;2.80;0.97;;;7.60;99.90;;;;;;5035079;28;20426;-73
2023/11/16 06:05:09;;;;;;;3.67;1.00;;;7.60;99.90;;;;;;5034128;28;20442;-73
2023/11/16 06:07:41;;;;;;;1.70;0.90;;;7.60;99.90;;;;;;5035304;28;20449;-73
2023/11/16 06:10:11;;;;;;;4.63;0.90;;;7.60;99.90;;;;;;5033450;28;20445;-73
2023/11/16 06:12:39;;;;;;;2.27;0.90;;;7.60;99.90;;;;;;5034999;28;20471;-73
2023/11/16 06:15:10;;;;;;;1.53;0.77;;;7.50;99.90;;;;;;5033593;28;20982;-73
2023/11/16 06:17:41;;;;;;;4.70;0.90;;;7.50;99.90;;;;;;5035255;28;20421;-73
2023/11/16 06:20:11;;;;;;;4.47;1.00;;;7.50;99.90;;;;;;5034992;28;20497;-73
2023/11/16 06:22:41;;;;;;;3.50;1.17;;;7.40;99.90;;;;;;5033388;28;20442;-73
2023/11/16 06:25:11;;;;;;;2.97;0.90;;;7.40;99.90;;;;;;5033327;28;20943;-73
2023/11/16 06:27:41;;;;;;;3.00;0.90;;;7.40;99.90;;;;;;5034440;28;20500;-73
2023/11/16 06:30:12;;;;;;;2.00;0.90;;;7.40;99.90;;;;;;5033191;28;20499;-73
2023/11/16 06:32:44;;;;;;;5.07;1.00;;;7.40;99.90;;;;;;5033063;28;20474;-73
2023/11/16 06:35:12;;;;;;;2.87;1.37;;;7.30;99.90;;;;;;5033296;28;20451;-73
2023/11/16 06:37:41;;;;;;;2.30;1.00;;;7.30;99.90;;;;;;5033061;28;20868;-73
2023/11/16 06:40:10;;;;;;;4.27;1.20;;;7.30;99.90;;;;;;5032855;28;20453;-73
2023/11/16 06:42:39;;;;;;;2.60;0.80;;;7.30;99.90;;;;;;5032970;28;20454;-73
2023/11/16 06:45:12;;;;;;;6.50;1.33;;;7.20;99.90;;;;;;5032961;28;20465;-73
2023/11/16 06:47:41;;;;;;;3.93;1.10;;;7.20;99.90;;;;;;5033044;28;20461;-73
2023/11/16 06:50:12;;;;;;;4.83;1.10;;;7.20;99.90;;;;;;5033009;28;20860;-73
2023/11/16 06:52:43;;;;;;;2.97;1.60;;;7.20;99.90;;;;;;5032878;28;20475;-73
2023/11/16 06:55:14;;;;;;;5.77;1.57;;;7.20;99.90;;;;;;5032855;28;20449;-73
2023/11/16 06:57:45;;;;;;;5.13;1.17;;;7.20;99.90;;;;;;5032904;28;20541;-73
2023/11/16 07:00:21;;;;;;;2.13;1.50;;;7.10;99.90;;;;;;5033634;28;20475;-73
2023/11/16 07:02:52;;;;;;;6.43;1.30;;;7.10;99.90;;;;;;5034267;28;20758;-73
2023/11/16 07:05:24;;;;;;;3.20;1.30;;;7.10;99.90;;;;;;5034017;28;20427;-73
2023/11/16 07:07:54;;;;;;;2.90;0.97;;;7.10;99.90;;;;;;5033133;28;20810;-73
2023/11/16 07:10:23;;;;;;;2.20;1.10;;;7.10;99.90;;;;;;5033937;28;20457;-73
2023/11/16 07:12:55;;;;;;;2.80;0.90;;;7.00;99.90;;;;;;5033738;28;20518;-73
2023/11/16 07:15:24;;;;;;;5.03;1.33;;;7.00;99.90;;;;;;5033796;28;20448;-73
2023/11/16 07:17:53;;;;;;;5.17;1.50;;;7.00;99.90;;;;;;5032397;28;20469;-73
2023/11/16 07:20:25;;;;;;;3.27;1.07;;;7.00;99.90;;;;;;5033082;28;20459;-73
2023/11/16 07:22:53;;;;;;;3.30;1.20;;;7.00;99.90;;;;;;5033891;28;20517;-73
2023/11/16 07:25:24;;;;;;;3.77;1.27;;;7.00;99.90;;;;;;5033538;28;20962;-73
2023/11/16 07:27:55;;;;;;;2.07;1.07;;;7.00;99.90;;;;;;5033663;28;20487;-73
2023/11/16 07:30:24;;;;;;;4.00;1.30;;;7.00;99.90;;;;;;5032278;28;20474;-73
2023/11/16 07:32:52;;;;;;;3.00;0.97;;;6.90;99.90;;;;;;5032159;28;20483;-73
2023/11/16 07:35:25;;;;;;;3.57;1.00;;;6.90;99.90;;;;;;5032226;28;20445;-73
2023/11/16 07:37:54;;;;;;;3.43;1.20;;;6.90;99.90;;;;;;5033126;28;20448;-73
2023/11/16 07:40:24;;;;;;;5.07;1.33;;;6.90;99.90;;;;;;5033611;28;20854;-73
2023/11/16 07:42:56;;;;;;;2.20;1.27;;;6.90;99.90;;;;;;5032065;28;20956;-73
2023/11/16 07:45:26;;;;;;;4.00;1.20;;;6.90;99.90;;;;;;5033714;28;20859;-73
2023/11/16 07:47:59;;;;;;;3.93;1.40;;;6.90;99.90;;;;;;5033249;28;20870;-73
2023/11/16 07:50:33;;;;;;;2.93;1.50;;;6.90;99.90;;;;;;5033134;28;20505;-73
2023/11/16 07:53:01;;;;;;;5.33;1.43;;;6.90;99.90;;;;;;5033967;28;20462;-73
2023/11/16 07:55:33;;;;;;;4.87;1.67;;;6.90;99.90;;;;;;5032288;28;21027;-73
2023/11/16 07:58:12;;;;;;;3.17;1.40;;;6.90;99.90;;;;;;5032289;28;20999;-73
2023/11/16 08:00:55;;;;;;;3.00;1.60;;;7.00;99.90;;;;;;5032008;28;20554;-73
2023/11/16 08:03:42;;;;;;;3.33;2.00;;;7.00;99.90;;;;;;5033936;28;20463;-73
2023/11/16 08:06:14;;;;;;;2.90;1.87;;;7.00;99.90;;;;;;5032007;28;20432;-73
2023/11/16 08:08:46;;;;;;;4.40;1.70;;;7.00;99.90;;;;;;5033261;28;20788;-73
2023/11/16 08:11:16;;;;;;;5.90;2.13;;;7.00;99.90;;;;;;5033103;28;20518;-73
2023/11/16 08:13:46;;;;;;;6.10;2.43;;;7.00;99.90;;;;;;5031831;28;20998;-73
2023/11/16 08:16:20;;;;;;;4.73;1.40;;;7.00;99.90;;;;;;5031791;28;20498;-73
2023/11/16 08:18:50;;;;;;;3.93;1.60;;;7.00;99.90;;;;;;5031801;28;20506;-73
2023/11/16 08:21:22;;;;;;;3.60;1.37;;;7.00;99.90;;;;;;5032919;28;20462;-73
2023/11/16 08:23:53;;;;;;;2.73;1.30;;;7.00;99.90;;;;;;5031857;28;20930;-73
2023/11/16 08:26:22;;;;;;;3.30;1.53;;;7.00;99.90;;;;;;5031808;28;20460;-73
2023/11/16 08:28:51;;;;;;;4.40;1.50;;;7.00;99.90;;;;;;5033002;28;20449;-73
2023/11/16 08:31:24;;;;;;;3.60;1.50;;;7.00;99.90;;;;;;5031622;28;20478;-73
2023/11/16 08:33:52;;;;;;;2.63;1.40;;;7.00;99.90;;;;;;5035385;28;20536;-73
2023/11/16 08:36:25;;;;;;;3.30;1.60;;;7.00;99.90;;;;;;5036856;28;20491;-73
2023/11/16 08:38:55;;;;;;;5.53;1.33;;;7.00;99.90;;;;;;5036670;28;20466;-73
2023/11/16 08:41:23;;;;;;;3.93;1.30;;;7.10;99.90;;;;;;5036800;28;20506;-73
2023/11/16 08:43:54;;;;;;;3.00;1.50;;;7.10;99.90;;;;;;5036419;28;20458;-73
2023/11/16 08:46:24;;;;;;;5.20;1.70;;;7.10;99.90;;;;;;5035078;28;20464;-73
2023/11/16 08:48:54;;;;;;;3.10;1.40;;;7.10;99.90;;;;;;5035232;28;20452;-73
2023/11/16 08:51:26;;;;;;;2.97;1.70;;;7.10;99.90;;;;;;5035064;28;20574;-73
2023/11/16 08:53:56;;;;;;;2.87;1.37;;;7.10;99.90;;;;;;5034965;28;20472;-73
2023/11/16 08:56:27;;;;;;;4.13;1.37;;;7.20;99.90;;;;;;5034997;28;20508;-73
2023/11/16 08:59:08;;;;;;;1.93;1.20;;;7.20;99.90;;;;;;5036778;28;20421;-73
2023/11/16 09:01:37;;;;;;;2.70;1.67;;;7.20;99.90;;;;;;5034821;28;20974;-73
2023/11/16 09:04:11;;;;;;;3.83;1.80;;;7.30;99.90;;;;;;5034795;28;20480;-73
2023/11/16 09:06:43;;;;;;;4.57;1.67;;;7.30;99.90;;;;;;5034985;28;20449;-73
2023/11/16 09:11:57;;;;;;;4.63;1.80;;;7.40;99.90;;;;;;5035752;28;20470;-73
2023/11/16 09:14:28;;;;;;;3.40;1.30;;;7.40;99.90;;;;;;5036167;28;20457;-73
2023/11/16 09:17:02;;;;;;;2.23;1.17;;;7.50;99.90;;;;;;5034662;28;20489;-73
2023/11/16 09:19:34;;;;;;;3.47;1.50;;;7.50;99.90;;;;;;5036081;28;20433;-73
2023/11/16 09:22:04;;;;;;;2.97;1.20;;;7.50;99.90;;;;;;5035746;28;20489;-73
2023/11/16 09:24:39;;;;;;;3.33;1.70;;;7.50;99.90;;;;;;5034635;28;20907;-73
2023/11/16 09:27:08;;;;;;;3.90;1.50;;;7.60;99.90;;;;;;5034543;28;20535;-73
2023/11/16 09:29:38;;;;;;;3.27;1.80;;;7.60;99.90;;;;;;5034458;28;20470;-73
2023/11/16 09:32:11;;;;;;;4.73;1.70;;;7.60;99.90;;;;;;5035573;28;20500;-73
2023/11/16 09:34:41;;;;;;;3.20;1.53;;;7.70;99.90;;;;;;5035975;28;20488;-73
2023/11/16 09:37:11;;;;;;;4.30;1.70;;;7.70;99.90;;;;;;5035654;28;20445;-73
2023/11/16 09:39:38;;;;;;;2.90;1.40;;;7.80;99.90;;;;;;5035602;28;20444;-73
2023/11/16 09:42:12;;;;;;;3.03;1.40;;;7.80;99.90;;;;;;5034774;28;20463;-73
2023/11/16 09:44:52;;;;;;;4.00;1.87;;;7.90;99.90;;;;;;5035038;28;21018;-74
2023/11/16 09:47:29;;;;;;;6.57;1.47;;;7.90;99.90;;;;;;5035281;28;20517;-74
2023/11/16 09:50:27;;;;;;;4.03;1.33;;;7.90;99.90;;;;;;5035767;28;20987;-73
2023/11/16 09:53:03;;;;;;;3.83;1.23;;;8.00;99.90;;;;;;5033982;28;20435;-73
2023/11/16 09:55:32;;;;;;;1.97;1.10;;;8.10;99.90;;;;;;5035423;28;20468;-73
2023/11/16 09:58:04;;;;;;;3.57;1.50;;;8.10;99.90;;;;;;5033974;28;20457;-73
2023/11/16 10:00:34;;;;;;;3.13;1.87;;;8.10;99.90;;;;;;5033985;28;20477;-73
2023/11/16 10:03:05;;;;;;;4.23;1.93;;;8.10;99.90;;;;;;5034163;28;20455;-73
2023/11/16 10:05:36;;;;;;;4.17;1.50;;;8.10;99.90;;;;;;5033818;28;20450;-73
2023/11/16 10:08:08;;;;;;;2.97;1.20;;;8.10;99.90;;;;;;5033918;28;20556;-73
2023/11/16 10:10:40;;;;;;;3.30;1.20;;;8.20;99.90;;;;;;5035634;28;20790;-74
2023/11/16 10:13:08;;;;;;;6.47;1.60;;;8.20;99.90;;;;;;5033620;28;20435;-73
2023/11/16 10:15:39;;;;;;;2.97;1.10;;;8.20;99.90;;;;;;5033639;28;20988;-74
2023/11/16 10:18:10;;;;;;;2.77;1.50;;;8.30;99.90;;;;;;5035060;28;20415;-73
2023/11/16 10:20:42;;;;;;;4.77;1.90;;;8.30;99.90;;;;;;5033307;28;20885;-73
2023/11/16 10:23:13;;;;;;;3.43;1.30;;;8.30;99.90;;;;;;5033477;28;20446;-73
2023/11/16 10:25:44;;;;;;;2.37;1.33;;;8.40;99.90;;;;;;5034870;28;20791;-73
2023/11/16 10:28:18;;;;;;;4.10;1.50;;;8.40;99.90;;;;;;5033538;28;20865;-73
2023/11/16 10:30:50;;;;;;;2.70;1.20;;;8.40;99.90;;;;;;5034700;28;20466;-73
2023/11/16 10:33:21;;;;;;;2.60;1.53;;;8.50;99.90;;;;;;5034768;28;20423;-73
2023/11/16 10:35:53;;;;;;;4.60;1.40;;;8.50;99.90;;;;;;5033217;28;20516;-73
2023/11/16 10:38:25;;;;;;;3.80;1.20;;;8.60;99.90;;;;;;5034663;28;20455;-73
2023/11/16 10:40:55;;;;;;;4.03;1.60;;;8.70;99.90;;;;;;5034346;28;20455;-73
2023/11/16 10:43:27;;;;;;;5.00;1.60;;;8.70;99.90;;;;;;5033062;28;20467;-73
2023/11/16 10:46:00;;;;;;;4.07;1.67;;;8.80;99.90;;;;;;5033156;28;20494;-73
2023/11/16 10:48:30;;;;;;;3.87;1.20;;;8.80;99.90;;;;;;5032963;28;20811;-73
2023/11/16 10:51:00;;;;;;;5.53;1.67;;;8.90;99.90;;;;;;5034670;28;20805;-73
2023/11/16 10:53:37;;;;;;;3.87;1.40;;;8.90;99.90;;;;;;5033802;28;20936;-73
2023/11/16 10:56:09;;;;;;;3.43;1.50;;;8.90;99.90;;;;;;5031975;28;20533;-73
2023/11/16 10:58:41;;;;;;;4.10;1.43;;;9.00;99.90;;;;;;5034270;28;20776;-73
2023/11/16 11:01:14;;;;;;;5.73;1.50;;;9.00;99.90;;;;;;5032623;28;20459;-73
2023/11/16 11:03:47;;;;;;;2.90;1.30;;;9.10;99.90;;;;;;5032704;28;20446;-73
2023/11/16 11:06:18;;;;;;;4.37;1.30;;;9.10;99.90;;;;;;5034174;28;20487;-73
2023/11/16 11:08:51;;;;;;;2.77;1.50;;;9.10;99.90;;;;;;5032684;28;20431;-73
2023/11/16 11:11:24;;;;;;;4.40;1.70;;;9.10;99.90;;;;;;5033743;28;20467;-72
2023/11/16 11:13:56;;;;;;;3.57;1.70;;;9.20;99.90;;;;;;5033967;28;20485;-73
2023/11/16 11:16:28;;;;;;;5.40;2.00;;;9.20;99.90;;;;;;5033738;28;20431;-73
2023/11/16 11:18:57;;;;;;;2.70;1.23;;;9.20;99.90;;;;;;5033756;28;20853;-72
2023/11/16 11:21:30;;;;;;;3.90;1.40;;;9.20;99.90;;;;;;5033491;28;20455;-73
2023/11/16 11:24:08;;;;;;;3.07;1.60;;;9.20;99.90;;;;;;5032455;28;20474;-73
2023/11/16 11:26:48;;;;;;;4.73;1.70;;;9.20;99.90;;;;;;5032955;28;20493;-73
2023/11/16 11:29:17;;;;;;;3.10;1.53;;;9.20;99.90;;;;;;5035469;28;20431;-73
2023/11/16 11:31:51;;;;;;;4.67;1.47;;;9.20;99.90;;;;;;5032730;28;21015;-73
2023/11/16 11:34:27;;;;;;;2.73;1.53;;;9.20;99.90;;;;;;5032442;28;20435;-73
2023/11/16 11:36:55;;;;;;;2.07;1.07;;;9.30;99.90;;;;;;5032347;28;20924;-73
2023/11/16 11:39:38;;;;;;;2.30;1.00;;;9.20;99.90;;;;;;5033342;28;20446;-73
2023/11/16 11:42:10;;;;;;;2.67;1.20;;;9.30;99.90;;;;;;5033315;28;20450;-73
2023/11/16 11:44:39;;;;;;;5.90;1.20;;;9.30;99.90;;;;;;5033460;28;20435;-73
2023/11/16 11:47:14;;;;;;;3.43;1.43;;;9.30;99.90;;;;;;5033615;28;20418;-73
2023/11/16 11:49:48;;;;;;;3.17;1.20;;;9.30;99.90;;;;;;5032353;28;20443;-73
2023/11/16 11:52:17;;;;;;;2.23;1.10;;;9.30;99.90;;;;;;5032009;28;20988;-72
2023/11/16 11:54:47;;;;;;;2.93;1.40;;;9.30;99.90;;;;;;5033458;28;20520;-73
2023/11/16 11:57:16;;;;;;;2.80;1.13;;;9.30;99.90;;;;;;5031967;28;20501;-73
2023/11/16 11:59:58;;;;;;;3.10;1.20;;;9.30;99.90;;;;;;5033406;28;20781;-73
2023/11/16 12:02:26;;;;;;;3.00;1.53;;;9.30;99.90;;;;;;5033200;28;20462;-73
2023/11/16 12:04:55;;;;;;;7.97;2.10;;;9.30;99.90;;;;;;5033288;28;20450;-73
2023/11/16 12:07:25;;;;;;;4.30;1.33;;;9.30;99.90;;;;;;5035502;28;20509;-73
2023/11/16 12:09:55;;;;;;;1.60;0.80;;;9.30;99.90;;;;;;5037473;28;20474;-73
2023/11/16 12:12:26;;;;;;;2.43;1.27;;;9.30;99.90;;;;;;5037781;28;20419;-73
2023/11/16 12:14:56;;;;;;;4.30;1.33;;;9.30;99.90;;;;;;5036953;28;20473;-73
2023/11/16 12:17:24;;;;;;;3.80;1.30;;;9.30;99.90;;;;;;5035707;28;20545;-73
2023/11/16 12:19:53;;;;;;;4.90;1.10;;;9.30;99.90;;;;;;5035610;28;20820;-73
2023/11/16 12:22:22;;;;;;;3.50;1.30;;;9.20;99.90;;;;;;5036827;28;20530;-73
2023/11/16 12:24:52;;;;;;;3.27;1.27;;;9.30;99.90;;;;;;5036784;28;20516;-73
2023/11/16 12:27:25;;;;;;;3.77;1.70;;;9.20;99.90;;;;;;5036800;28;20419;-73
2023/11/16 12:29:54;;;;;;;2.50;1.00;;;9.30;99.90;;;;;;5035457;28;20535;-73
2023/11/16 12:32:26;;;;;;;2.23;1.03;;;9.20;99.90;;;;;;5037210;28;20423;-73
2023/11/16 12:34:55;;;;;;;2.97;1.43;;;9.30;99.90;;;;;;5035374;28;20895;-73
2023/11/16 12:37:23;;;;;;;2.63;1.20;;;9.20;99.90;;;;;;5035325;28;20542;-73
2023/11/16 12:39:51;;;;;;;4.40;1.63;;;9.20;99.90;;;;;;5035262;28;20534;-73
2023/11/16 12:42:22;;;;;;;2.17;1.30;;;9.20;99.90;;;;;;5036358;28;20458;-73
2023/11/16 12:44:53;;;;;;;3.33;1.30;;;9.30;99.90;;;;;;5035167;28;20455;-73
2023/11/16 12:47:26;;;;;;;3.40;1.37;;;9.30;99.90;;;;;;5036551;28;20505;-72
2023/11/16 12:50:02;;;;;;;2.80;1.30;;;9.30;99.90;;;;;;5035358;28;20861;-72
2023/11/16 12:52:34;;;;;;;3.40;1.00;;;9.30;99.90;;;;;;5036633;28;20506;-72
2023/11/16 12:55:04;;;;;;;2.00;1.30;;;9.30;99.90;;;;;;5035142;28;20493;-72
2023/11/16 12:57:36;;;;;;;2.57;1.50;;;9.30;99.90;;;;;;5036516;28;20415;-73
2023/11/16 13:00:08;;;;;;;3.47;2.57;;;9.30;99.90;;;;;;5034864;28;20459;-72
2023/11/16 13:02:37;;;;;;;5.27;1.53;;;9.30;99.90;;;;;;5034902;28;20454;-73
2023/11/16 13:05:06;;;;;;;4.30;2.53;;;9.30;99.90;;;;;;5034911;28;20813;-73
2023/11/16 13:07:39;;;;;;;1.70;1.30;;;9.30;99.90;;;;;;5036680;28;20430;-73
2023/11/16 13:10:08;;;;;;;4.03;1.40;;;9.20;99.90;;;;;;5034726;28;20502;-73
2023/11/16 13:12:37;;;;;;;3.10;1.50;;;9.20;99.90;;;;;;5036275;28;20431;-73
2023/11/16 13:15:08;;;;;;;3.70;1.70;;;9.20;99.90;;;;;;5035866;28;20474;-73